Time;durP1;ratioP1;P1;durP2;ratioP2;P2;SDS_P1;SDS_P2;PMS_P1;PMS_P2;Temp;Humidity;BMP_temperature;BMP_pressure;BME280_temperature;BME280_humidity;BME280_pressure;Samples;Min_cycle;Max_cycle;Signal;HPM_P1;HPM_P2
2022/03/13 00:02:15;;;;;;;106.20;61.35;;;;;;;;;;4956288;29;20489;-66
2022/03/13 00:04:43;;;;;;;108.43;62.55;;;;;;;;;;4956496;28;20036;-66
2022/03/13 00:07:16;;;;;;;90.85;56.33;;;;;;;;;;4956448;28;20030;-65
2022/03/13 00:09:44;;;;;;;86.13;49.60;;;;;;;;;;4956343;29;20031;-63
2022/03/13 00:12:14;;;;;;;75.57;44.33;;;;;;;;;;4956233;29;20035;-63
2022/03/13 00:14:43;;;;;;;74.28;44.33;;;;;;;;;;4958703;28;20474;-62
2022/03/13 00:17:11;;;;;;;78.43;51.55;;;;;;;;;;4970285;28;20030;-64
2022/03/13 00:19:37;;;;;;;110.88;73.93;;;;;;;;;;4975199;28;20026;-62
2022/03/13 00:22:04;;;;;;;79.88;50.60;;;;;;;;;;4975541;28;20059;-61
2022/03/13 00:24:31;;;;;;;99.82;65.43;;;;;;;;;;4975148;28;20110;-64
2022/03/13 00:26:57;;;;;;;91.93;69.00;;;;;;;;;;4975260;28;20041;-64
2022/03/13 00:29:23;;;;;;;89.35;58.00;;;;;;;;;;4975129;28;20026;-64
2022/03/13 00:31:49;;;;;;;96.45;63.63;;;;;;;;;;4975023;28;20027;-65
2022/03/13 00:34:15;;;;;;;116.93;78.13;;;;;;;;;;4975178;28;20105;-64
2022/03/13 00:36:41;;;;;;;97.03;60.35;;;;;;;;;;4975032;28;20634;-64
2022/03/13 00:39:07;;;;;;;86.82;55.50;;;;;;;;;;4975162;28;20457;-64
2022/03/13 00:41:34;;;;;;;67.95;40.80;;;;;;;;;;4975017;28;20035;-64
2022/03/13 00:44:00;;;;;;;109.60;81.03;;;;;;;;;;4957828;28;20019;-66
2022/03/13 00:46:26;;;;;;;78.43;50.60;;;;;;;;;;4974995;28;20458;-66
2022/03/13 00:48:52;;;;;;;67.28;41.40;;;;;;;;;;4975097;28;20039;-67
2022/03/13 00:51:19;;;;;;;69.13;40.22;;;;;;;;;;4957548;28;20042;-65
2022/03/13 00:53:45;;;;;;;60.95;40.20;;;;;;;;;;4975371;28;20523;-65
2022/03/13 00:56:11;;;;;;;60.45;33.63;;;;;;;;;;4975137;28;20045;-66
2022/03/13 00:58:40;;;;;;;58.38;36.60;;;;;;;;;;4975086;28;20053;-66
2022/03/13 01:01:06;;;;;;;52.28;32.45;;;;;;;;;;4975131;28;20429;-65
2022/03/13 01:03:35;;;;;;;56.50;32.10;;;76.90;1638.40;;;;;;4975195;28;20027;-65
2022/03/13 01:06:02;;;;;;;52.95;32.08;;;;;;;;;;4975087;28;20027;-65
2022/03/13 01:08:28;;;;;;;55.08;31.05;;;;;;;;;;4975259;28;20054;-65
2022/03/13 01:10:57;;;;;;;60.92;33.70;;;;;;;;;;4974884;28;20123;-65
2022/03/13 01:13:23;;;;;;;57.50;31.70;;;;;;;;;;4974917;28;20030;-64
2022/03/13 01:15:50;;;;;;;53.05;33.95;;;;;;;;;;4974699;28;20023;-65
2022/03/13 01:18:16;;;;;;;54.42;34.78;;;;;;;;;;4974909;28;20505;-65
2022/03/13 01:20:46;;;;;;;57.20;34.67;;;;;;;;;;4974992;28;20022;-65
2022/03/13 01:23:12;;;;;;;59.13;36.15;;;;;;;;;;4974848;28;20027;-65
2022/03/13 01:25:39;;;;;;;59.97;36.95;;;;;;;;;;4974665;28;20065;-65
2022/03/13 01:28:05;;;;;;;68.20;39.47;;;;;;;;;;4974798;28;20031;-65
2022/03/13 01:30:31;;;;;;;66.80;38.15;;;;;;;;;;4974671;28;20094;-66
2022/03/13 01:32:58;;;;;;;68.50;43.30;;;;;;;;;;4974668;28;20029;-66
2022/03/13 01:35:25;;;;;;;81.05;49.38;;;;;;;;;;4974683;28;20424;-66
2022/03/13 01:37:52;;;;;;;69.93;47.00;;;;;;;;;;4974643;28;20448;-66
2022/03/13 01:40:22;;;;;;;65.90;42.33;;;;;;;;;;4974435;28;20392;-67
2022/03/13 01:42:49;;;;;;;62.33;36.90;;;;;;;;;;4974509;28;20077;-66
2022/03/13 01:45:17;;;;;;;61.63;38.97;;;;;;;;;;4974602;28;20106;-66
2022/03/13 01:47:44;;;;;;;62.92;36.58;;;;;;;;;;4974610;28;20381;-66
2022/03/13 01:50:10;;;;;;;64.15;35.75;;;;;;;;;;4974353;28;20022;-67
2022/03/13 01:52:38;;;;;;;60.08;37.05;;;;;;;;;;4974371;28;20115;-67
2022/03/13 01:55:04;;;;;;;58.55;36.63;;;;;;;;;;4974765;28;20416;-67
2022/03/13 01:57:32;;;;;;;65.25;39.75;;;;;;;;;;4974104;28;20149;-66
2022/03/13 01:59:59;;;;;;;57.97;36.10;;;;;;;;;;4974238;28;20026;-66
2022/03/13 02:02:25;;;;;;;58.70;33.47;;;;;;;;;;4974445;28;20114;-66
2022/03/13 02:04:53;;;;;;;49.30;31.52;;;;;;;;;;4974402;28;20038;-65
2022/03/13 02:07:19;;;;;;;53.63;30.75;;;;;;;;;;4974107;28;20034;-65
2022/03/13 02:09:47;;;;;;;58.60;34.03;;;;;;;;;;4974701;28;20392;-65
2022/03/13 02:12:13;;;;;;;50.58;32.05;;;;;;;;;;4974162;28;20528;-65
2022/03/13 02:14:39;;;;;;;42.83;28.63;;;;;;;;;;4974471;28;20370;-65
2022/03/13 02:17:05;;;;;;;40.28;23.95;;;51.70;1689.60;;;;;;4974093;28;20035;-64
2022/03/13 02:19:31;;;;;;;34.40;21.45;;;51.70;1689.60;;;;;;4973794;28;20034;-64
2022/03/13 02:21:59;;;;;;;30.40;20.20;;;51.70;1664.00;;;;;;4974067;28;20031;-65
2022/03/13 02:24:26;;;;;;;32.30;21.30;;;51.20;1715.20;;;;;;4974007;28;20019;-64
2022/03/13 02:27:00;;;;;;;37.92;22.63;;;26.50;1715.20;;;;;;4974958;28;20477;-65
2022/03/13 02:29:27;;;;;;;38.70;24.42;;;26.50;1715.20;;;;;;4978122;28;20030;-64
2022/03/13 02:31:53;;;;;;;38.33;24.92;;;51.20;1740.80;;;;;;4977965;28;20019;-64
2022/03/13 02:34:20;;;;;;;40.30;24.25;;;26.50;1715.20;;;;;;4977973;28;20030;-64
2022/03/13 02:36:56;;;;;;;44.97;25.52;;;26.40;1740.80;;;;;;4977837;28;20414;-64
2022/03/13 02:39:23;;;;;;;38.03;23.33;;;51.30;1740.80;;;;;;4978245;28;20110;-64
2022/03/13 02:41:49;;;;;;;39.15;21.60;;;51.30;1792.00;;;;;;4977901;28;20478;-64
2022/03/13 02:44:17;;;;;;;44.83;24.67;;;;;;;;;;4977813;28;20042;-64
2022/03/13 02:46:48;;;;;;;41.33;24.90;;;;;;;;;;4977652;28;20477;-65
2022/03/13 02:49:15;;;;;;;44.53;25.42;;;;;;;;;;4977755;28;20054;-65
2022/03/13 02:51:45;;;;;;;42.42;29.10;;;26.30;1740.80;;;;;;4977469;28;20106;-65
2022/03/13 02:54:11;;;;;;;36.47;22.77;;;26.20;1766.40;;;;;;4977588;28;20027;-64
2022/03/13 02:56:37;;;;;;;40.33;24.98;;;;;;;;;;4977457;28;20050;-65
2022/03/13 02:59:03;;;;;;;47.47;26.92;;;;;;;;;;4977320;28;20082;-64
2022/03/13 03:01:30;;;;;;;44.03;27.23;;;;;;;;;;4977360;28;20031;-64
2022/03/13 03:04:00;;;;;;;41.70;25.10;;;;;;;;;;4977406;28;20037;-65
2022/03/13 03:06:28;;;;;;;47.85;27.13;;;;;;;;;;4977250;28;20030;-66
2022/03/13 03:08:54;;;;;;;42.95;27.63;;;;;;;;;;4977354;28;20039;-65
2022/03/13 03:11:20;;;;;;;38.22;23.00;;;;;;;;;;4977291;28;20051;-65
2022/03/13 03:13:46;;;;;;;33.80;22.83;;;;;;;;;;4977538;28;20485;-65
2022/03/13 03:16:13;;;;;;;37.72;22.63;;;;;;;;;;4977049;28;20381;-65
2022/03/13 03:18:39;;;;;;;43.53;23.58;;;;;;;;;;4977030;28;20027;-66
2022/03/13 03:21:05;;;;;;;41.38;26.15;;;26.50;1689.60;;;;;;4977036;28;20023;-66
2022/03/13 03:23:31;;;;;;;41.30;24.30;;;51.30;1715.20;;;;;;4977157;28;20114;-65
2022/03/13 03:25:57;;;;;;;36.85;22.98;;;;;;;;;;4977043;28;20106;-65
2022/03/13 03:28:23;;;;;;;31.80;21.55;;;51.80;1664.00;;;;;;4977041;28;20026;-65
2022/03/13 03:30:49;;;;;;;34.63;21.15;;;51.60;1689.60;;;;;;4976968;28;20031;-66
2022/03/13 03:33:15;;;;;;;32.05;20.52;;;;;;;;;;4976820;28;20031;-65
2022/03/13 03:35:41;;;;;;;30.58;20.90;;;51.60;1664.00;;;;;;4976636;28;20488;-65
2022/03/13 03:38:06;;;;;;;34.60;22.23;;;51.60;1664.00;;;;;;4976577;28;20043;-66
2022/03/13 03:40:34;;;;;;;48.22;32.83;;;51.30;1689.60;;;;;;4976755;28;20027;-65
2022/03/13 03:43:03;;;;;;;48.10;39.47;;;51.30;1689.60;;;;;;4976746;28;20019;-65
2022/03/13 03:45:30;;;;;;;38.42;24.92;;;51.40;1689.60;;;;;;4976720;28;20527;-65
2022/03/13 03:47:56;;;;;;;36.28;23.77;;;51.40;1689.60;;;;;;4976632;28;20031;-65
2022/03/13 03:50:22;;;;;;;42.58;31.27;;;51.40;1689.60;;;;;;4959273;28;20023;-66
2022/03/13 03:52:48;;;;;;;32.67;23.08;;;51.40;1689.60;;;;;;4976563;28;20031;-67
2022/03/13 03:55:14;;;;;;;36.75;27.10;;;51.30;1689.60;;;;;;4976484;28;20026;-66
2022/03/13 03:57:40;;;;;;;32.97;22.67;;;51.30;1715.20;;;;;;4976337;28;20050;-65
2022/03/13 04:00:08;;;;;;;35.08;23.80;;;51.40;1689.60;;;;;;4976447;28;20030;-65
2022/03/13 04:02:34;;;;;;;36.00;23.75;;;51.40;1689.60;;;;;;4976248;28;20034;-66
2022/03/13 04:05:04;;;;;;;36.13;22.38;;;51.40;1689.60;;;;;;4976306;28;20023;-66
2022/03/13 04:07:30;;;;;;;39.25;25.88;;;51.40;1689.60;;;;;;4976237;28;20023;-65
2022/03/13 04:09:56;;;;;;;55.17;39.22;;;51.40;1689.60;;;;;;4976285;28;20030;-65
2022/03/13 04:12:22;;;;;;;52.75;39.50;;;51.60;1689.60;;;;;;4976194;28;20110;-66
2022/03/13 04:14:48;;;;;;;51.63;36.33;;;51.30;1715.20;;;;;;4976171;28;20520;-65
2022/03/13 04:17:14;;;;;;;39.70;23.25;;;26.50;1689.60;;;;;;4976315;28;20121;-66
2022/03/13 04:19:39;;;;;;;42.08;24.67;;;26.20;1715.20;;;;;;4976238;28;20034;-66
2022/03/13 04:22:05;;;;;;;53.30;24.67;;;26.00;1740.80;;;;;;4975938;28;20109;-66
2022/03/13 04:24:31;;;;;;;42.08;23.77;;;;;;;;;;4975977;28;20107;-66
2022/03/13 04:26:57;;;;;;;53.50;35.40;;;;;;;;;;4975873;28;20107;-66
2022/03/13 04:29:24;;;;;;;39.15;26.15;;;25.90;1766.40;;;;;;4975844;28;20027;-67
2022/03/13 04:31:53;;;;;;;32.95;22.55;;;25.90;1740.80;;;;;;4975753;28;20049;-65
2022/03/13 04:34:19;;;;;;;46.58;26.50;;;25.90;1740.80;;;;;;4975771;28;20015;-65
2022/03/13 04:36:46;;;;;;;45.20;28.33;;;;;;;;;;4975462;28;20046;-66
2022/03/13 04:39:13;;;;;;;42.30;28.40;;;;;;;;;;4975849;28;20039;-66
2022/03/13 04:41:39;;;;;;;45.08;27.77;;;;;;;;;;4975704;28;20493;-66
2022/03/13 04:44:06;;;;;;;35.72;22.23;;;26.00;1715.20;;;;;;4975525;28;20034;-65
2022/03/13 04:46:32;;;;;;;31.55;19.40;;;26.10;1740.80;;;;;;4975742;28;20037;-66
2022/03/13 04:48:58;;;;;;;33.08;18.63;;;26.20;1715.20;;;;;;4974992;28;20023;-66
2022/03/13 04:51:24;;;;;;;31.05;18.77;;;26.00;1715.20;;;;;;4972878;28;20508;-65
2022/03/13 04:53:51;;;;;;;34.72;19.80;;;26.00;1740.80;;;;;;4975324;28;20023;-65
2022/03/13 04:56:17;;;;;;;31.88;18.90;;;26.00;1740.80;;;;;;4975241;28;20023;-65
2022/03/13 04:58:43;;;;;;;36.58;21.20;;;26.10;1740.80;;;;;;4975226;28;20058;-66
2022/03/13 05:01:09;;;;;;;30.13;20.13;;;25.90;1766.40;;;;;;4975321;28;20085;-66
2022/03/13 05:03:35;;;;;;;31.92;20.13;;;;;;;;;;4974978;28;20057;-66
2022/03/13 05:06:05;;;;;;;24.05;17.08;;;26.40;1689.60;;;;;;4975032;28;20026;-67
2022/03/13 05:08:36;;;;;;;28.58;17.92;;;26.50;1689.60;;;;;;4975336;28;20069;-65
2022/03/13 05:11:05;;;;;;;39.33;23.13;;;26.30;1715.20;;;;;;4974995;28;20030;-66
2022/03/13 05:13:31;;;;;;;286.45;162.63;;;26.20;1715.20;;;;;;4975036;28;20073;-66
2022/03/13 05:15:57;;;;;;;49.63;25.75;;;26.10;1715.20;;;;;;4975007;28;20034;-66
2022/03/13 05:18:23;;;;;;;58.42;33.17;;;25.70;1766.40;;;;;;4974941;28;20038;-67
2022/03/13 05:20:49;;;;;;;70.20;39.42;;;25.70;1766.40;;;;;;4974814;28;20026;-65
2022/03/13 05:23:15;;;;;;;29.27;18.63;;;25.80;1766.40;;;;;;4974927;28;20496;-65
2022/03/13 05:25:42;;;;;;;34.35;21.92;;;25.60;1792.00;;;;;;4974861;28;20027;-64
2022/03/13 05:28:09;;;;;;;38.17;23.73;;;25.60;1792.00;;;;;;4974837;28;20354;-65
2022/03/13 05:30:36;;;;;;;28.75;17.70;;;0.90;1792.00;;;;;;4974765;28;20493;-65
2022/03/13 05:33:04;;;;;;;29.63;18.80;;;0.90;1792.00;;;;;;4974613;28;20050;-65
2022/03/13 05:35:29;;;;;;;42.35;20.63;;;25.60;1766.40;;;;;;4974547;28;20037;-66
2022/03/13 05:37:55;;;;;;;45.90;25.92;;;25.70;1766.40;;;;;;4974539;28;20047;-65
2022/03/13 05:40:22;;;;;;;40.63;23.90;;;26.00;1740.80;;;;;;4974648;28;20062;-65
2022/03/13 05:42:52;;;;;;;46.60;27.77;;;26.10;1715.20;;;;;;4974607;28;20054;-65
2022/03/13 05:45:19;;;;;;;45.58;25.58;;;26.10;1715.20;;;;;;4974409;28;20019;-66
2022/03/13 05:47:50;;;;;;;50.13;28.13;;;26.10;1715.20;;;;;;4974375;28;20027;-65
2022/03/13 05:50:17;;;;;;;56.30;33.43;;;;;;;;;;4974853;28;20022;-65
2022/03/13 05:52:45;;;;;;;63.58;35.88;;;;;;;;;;4974554;28;20026;-65
2022/03/13 05:55:12;;;;;;;61.17;34.83;;;;;;;;;;4974437;28;20033;-65
2022/03/13 05:57:38;;;;;;;57.92;32.63;;;;;;;;;;4974159;28;20393;-65
2022/03/13 06:00:05;;;;;;;63.15;36.92;;;;;;;;;;4974281;28;20076;-65
2022/03/13 06:02:32;;;;;;;67.43;39.60;;;;;;;;;;4974154;28;20030;-65
2022/03/13 06:04:58;;;;;;;66.88;39.85;;;;;;;;;;4974172;28;20027;-65
2022/03/13 06:07:24;;;;;;;60.88;38.80;;;26.50;1689.60;;;;;;4974126;28;20393;-65
2022/03/13 06:09:52;;;;;;;62.85;39.38;;;;;;;;;;4974297;28;20029;-65
2022/03/13 06:12:18;;;;;;;59.85;34.05;;;;;;;;;;4974201;28;20481;-65
2022/03/13 06:14:44;;;;;;;92.75;58.78;;;;;;;;;;4974151;28;20569;-66
2022/03/13 06:17:10;;;;;;;63.55;36.08;;;;;;;;;;4974073;28;20489;-65
2022/03/13 06:19:42;;;;;;;69.68;38.88;;;;;;;;;;4973890;28;20113;-65
2022/03/13 06:22:09;;;;;;;74.57;43.30;;;52.00;1664.00;;;;;;4974440;28;20019;-65
2022/03/13 06:24:35;;;;;;;65.03;40.17;;;;;;;;;;4973998;28;20023;-65
2022/03/13 06:27:01;;;;;;;73.65;43.17;;;52.10;1664.00;;;;;;4974217;28;20042;-65
2022/03/13 06:29:27;;;;;;;67.88;40.88;;;;;;;;;;4974137;28;20023;-66
2022/03/13 06:31:53;;;;;;;74.80;41.92;;;77.00;1638.40;;;;;;4974078;28;20027;-66
2022/03/13 06:34:19;;;;;;;58.10;36.55;;;77.10;2176.00;;;;;;4973787;28;20442;-65
2022/03/13 06:36:45;;;;;;;75.47;42.85;;;77.20;1638.40;;;;;;4974083;28;20041;-65
2022/03/13 06:39:10;;;;;;;70.47;42.45;;;77.40;1612.80;;;;;;4974391;28;20034;-66
2022/03/13 06:41:38;;;;;;;77.88;46.13;;;77.70;1587.20;;;;;;4973997;28;20031;-66
2022/03/13 06:44:05;;;;;;;90.57;58.13;;;;;;;;;;4973999;28;20027;-66
2022/03/13 06:46:32;;;;;;;92.88;55.85;;;102.70;1561.60;;;;;;4974544;28;20031;-66
2022/03/13 06:48:59;;;;;;;82.63;51.20;;;;;;;;;;4973882;28;20018;-66
2022/03/13 06:51:26;;;;;;;80.68;51.13;;;;;;;;;;4974035;28;20034;-65
2022/03/13 06:53:52;;;;;;;60.03;38.90;;;;;;;;;;4973927;28;20034;-65
2022/03/13 06:56:18;;;;;;;80.95;51.63;;;;;;;;;;4973772;28;20478;-67
2022/03/13 06:58:44;;;;;;;86.72;53.92;;;;;;;;;;4973684;28;20054;-68
2022/03/13 07:01:10;;;;;;;87.55;52.95;;;;;;;;;;4973752;28;20545;-66
2022/03/13 07:03:36;;;;;;;84.57;53.25;;;;;;;;;;4973736;28;20114;-66
2022/03/13 07:06:04;;;;;;;98.05;62.75;;;;;;;;;;4973977;28;20429;-66
2022/03/13 07:08:32;;;;;;;109.80;67.55;;;;;;;;;;4973899;28;20027;-66
2022/03/13 07:10:59;;;;;;;84.93;53.20;;;;;;;;;;4974036;28;20035;-66
2022/03/13 07:13:32;;;;;;;69.68;44.58;;;;;;;;;;4975391;28;20046;-66
2022/03/13 07:15:59;;;;;;;88.50;53.72;;;;;;;;;;4977714;28;20532;-66
2022/03/13 07:18:26;;;;;;;98.88;63.08;;;;;;;;;;4976683;28;20038;-66
2022/03/13 07:20:52;;;;;;;82.43;52.67;;;;;;;;;;4977115;28;20015;-66
2022/03/13 07:23:18;;;;;;;86.22;54.45;;;;;;;;;;4977200;28;20038;-66
2022/03/13 07:25:44;;;;;;;88.03;55.58;;;;;;;;;;4976915;28;20035;-67
2022/03/13 07:28:10;;;;;;;97.28;61.30;;;;;;;;;;4976932;28;20029;-66
2022/03/13 07:30:37;;;;;;;86.05;53.22;;;;;;;;;;4976859;28;20101;-66
2022/03/13 07:33:03;;;;;;;67.63;46.30;;;;;;;;;;4976606;28;20030;-66
2022/03/13 07:35:29;;;;;;;50.55;35.38;;;154.30;1280.00;;;;;;4976880;28;20088;-66
2022/03/13 07:37:55;;;;;;;47.67;33.42;;;;;;;;;;4976719;28;20038;-66
2022/03/13 07:40:21;;;;;;;52.20;33.63;;;;;;;;;;4976803;28;20023;-67
2022/03/13 07:42:47;;;;;;;53.83;37.00;;;;;;;;;;4976733;28;20027;-67
2022/03/13 07:45:13;;;;;;;50.65;36.20;;;179.80;1228.80;;;;;;4976550;28;20022;-66
2022/03/13 07:47:39;;;;;;;50.67;35.28;;;179.90;1228.80;;;;;;4976647;28;20034;-67
2022/03/13 07:50:05;;;;;;;59.97;36.45;;;179.90;1203.20;;;;;;4976338;28;20034;-66
2022/03/13 07:52:31;;;;;;;55.33;37.47;;;180.00;1203.20;;;;;;4976584;28;20035;-67
2022/03/13 07:54:57;;;;;;;59.13;39.88;;;204.80;1203.20;;;;;;4976395;28;20497;-67
2022/03/13 07:57:24;;;;;;;63.10;41.42;;;205.00;1177.60;;;;;;4976320;28;20046;-67
2022/03/13 07:59:49;;;;;;;62.75;39.40;;;205.20;1177.60;;;;;;4976396;28;20052;-67
2022/03/13 08:02:16;;;;;;;64.75;39.15;;;;;;;;;;4976302;28;20384;-67
2022/03/13 08:04:42;;;;;;;64.22;40.33;;;;;;;;;;4976301;28;20541;-67
2022/03/13 08:07:08;;;;;;;55.90;36.90;;;;;;;;;;4976282;28;20065;-67
2022/03/13 08:09:35;;;;;;;44.80;32.10;;;;;;;;;;4976615;28;20031;-67
2022/03/13 08:12:02;;;;;;;59.30;37.75;;;;;;;;;;4976507;28;20038;-66
2022/03/13 08:14:28;;;;;;;78.10;49.65;;;;;;;;;;4976104;28;20030;-67
2022/03/13 08:16:54;;;;;;;63.25;42.55;;;;;;;;;;4976018;28;20517;-67
2022/03/13 08:19:20;;;;;;;67.93;45.63;;;;;;;;;;4975845;28;20098;-67
2022/03/13 08:21:46;;;;;;;68.43;42.75;;;;;;;;;;4976002;28;20386;-66
2022/03/13 08:24:15;;;;;;;67.75;42.20;;;;;;;;;;4974972;28;20445;-64
2022/03/13 08:26:41;;;;;;;62.70;41.45;;;;;;;;;;4975852;28;20015;-64
2022/03/13 08:29:08;;;;;;;45.42;31.13;;;;;;;;;;4975847;28;20034;-65
2022/03/13 08:31:34;;;;;;;57.33;33.35;;;;;;;;;;4975830;28;20059;-63
2022/03/13 08:34:01;;;;;;;81.38;55.58;;;;;;;;;;4958120;28;20027;-63
2022/03/13 08:36:28;;;;;;;58.80;39.17;;;;;;;;;;4975615;28;20053;-64
2022/03/13 08:38:55;;;;;;;43.28;30.10;;;;;;;;;;4976026;28;20113;-64
2022/03/13 08:41:21;;;;;;;46.92;31.30;;;;;;;;;;4975690;28;20367;-64
2022/03/13 08:43:47;;;;;;;53.50;28.80;;;;;;;;;;4975572;28;20041;-63
2022/03/13 08:46:13;;;;;;;51.55;27.30;;;;;;;;;;4975511;28;20058;-64
2022/03/13 08:48:40;;;;;;;47.67;25.70;;;;;;;;;;4975387;28;20073;-64
2022/03/13 08:51:06;;;;;;;49.30;25.30;;;;;;;;;;4958074;28;20422;-64
2022/03/13 08:53:32;;;;;;;51.15;18.58;;;;;;;;;;4975447;28;20053;-66
2022/03/13 08:55:58;;;;;;;37.25;20.08;;;;;;;;;;4975389;28;20490;-67
2022/03/13 08:58:27;;;;;;;47.53;25.98;;;;;;;;;;4975057;28;20472;-67
2022/03/13 09:00:54;;;;;;;33.95;22.10;;;;;;;;;;4958029;28;20027;-66
2022/03/13 09:03:20;;;;;;;25.25;18.40;;;;;;;;;;4975265;28;20046;-66
2022/03/13 09:05:48;;;;;;;25.38;18.02;;;;;;;;;;4974939;28;20027;-66
2022/03/13 09:08:14;;;;;;;28.25;16.52;;;;;;;;;;4975090;28;20130;-66
2022/03/13 09:10:40;;;;;;;24.45;15.40;;;;;;;;;;4975340;28;20061;-63
2022/03/13 09:13:06;;;;;;;32.47;19.58;;;;;;;;;;4975305;28;20038;-63
2022/03/13 09:15:33;;;;;;;29.63;16.75;;;;;;;;;;4974907;28;20033;-64
2022/03/13 09:18:02;;;;;;;24.25;13.95;;;;;;;;;;4974981;28;20119;-67
2022/03/13 09:20:28;;;;;;;28.10;18.48;;;308.00;870.40;;;;;;4974982;28;20039;-63
2022/03/13 09:22:55;;;;;;;27.95;20.17;;;308.10;844.80;;;;;;4974840;28;20070;-65
2022/03/13 09:25:21;;;;;;;32.13;20.50;;;;;;;;;;4974775;28;20033;-65
2022/03/13 09:27:48;;;;;;;28.55;18.55;;;;;;;;;;4974793;28;20433;-67
2022/03/13 09:30:15;;;;;;;23.27;17.02;;;;;;;;;;4974594;28;20019;-67
2022/03/13 09:32:41;;;;;;;20.27;14.15;;;;;;;;;;4974329;28;20030;-66
2022/03/13 09:35:09;;;;;;;22.88;12.75;;;333.70;819.20;;;;;;4974406;28;20050;-67
2022/03/13 09:37:35;;;;;;;24.80;12.68;;;;;;;;;;4974380;28;20030;-65
2022/03/13 09:40:02;;;;;;;24.48;17.10;;;;;;;;;;4974708;28;20039;-64
2022/03/13 09:42:27;;;;;;;34.72;20.52;;;461.40;716.80;;;;;;4974435;28;20101;-65
2022/03/13 09:44:53;;;;;;;16.90;13.95;;;;;;;;;;4957318;28;20461;-65
2022/03/13 09:47:20;;;;;;;22.48;13.10;;;;;;;;;;4974491;28;20474;-65
2022/03/13 09:49:48;;;;;;;37.22;23.70;;;;;;;;;;4974712;28;20031;-65
2022/03/13 09:52:14;;;;;;;68.43;46.97;;;;;;;;;;4974378;28;20161;-65
2022/03/13 09:54:40;;;;;;;51.35;36.05;;;;;;;;;;4974313;28;20512;-66
2022/03/13 09:57:06;;;;;;;33.72;25.52;;;;;;;;;;4974294;28;20061;-66
2022/03/13 09:59:32;;;;;;;42.17;29.23;;;;;;;;;;4974041;28;20088;-65
2022/03/13 10:01:59;;;;;;;17.30;13.27;;;;;;;;;;4974688;28;20031;-66
2022/03/13 10:04:24;;;;;;;19.15;17.15;;;742.60;512.00;;;;;;4974017;28;20380;-66
2022/03/13 10:07:01;;;;;;;26.75;16.60;;;;;;;;;;4974217;28;20127;-66
2022/03/13 10:09:28;;;;;;;20.48;16.48;;;;;;;;;;4974321;28;20485;-66
2022/03/13 10:12:15;;;;;;;21.00;18.52;;;;;;;;;;4974157;28;20042;-66
2022/03/13 10:15:01;;;;;;;24.27;21.70;;;;;;;;;;4974069;28;20449;-66
2022/03/13 10:17:28;;;;;;;37.13;21.05;;;768.20;460.80;;;;;;4974009;28;20502;-66
2022/03/13 10:19:56;;;;;;;24.40;21.80;;;;;;;;;;4974053;28;20023;-66
2022/03/13 10:22:30;;;;;;;26.17;22.77;;;;;;;;;;4973975;28;20030;-66
2022/03/13 10:24:56;;;;;;;22.58;18.67;;;;;;;;;;4956351;28;20031;-65
2022/03/13 10:27:22;;;;;;;21.58;16.05;;;794.20;435.20;;;;;;4974096;28;20042;-66
2022/03/13 10:29:47;;;;;;;25.75;19.40;;;794.20;435.20;;;;;;4973859;28;20023;-66
2022/03/13 10:32:17;;;;;;;26.38;19.80;;;793.70;460.80;;;;;;4973993;28;20035;-67
2022/03/13 10:34:52;;;;;;;31.90;22.75;;;;;;;;;;4973785;28;20042;-67
2022/03/13 10:37:35;;;;;;;28.67;25.70;;;794.40;435.20;;;;;;4973677;28;20035;-67
2022/03/13 10:40:22;;;;;;;43.53;28.17;;;794.50;435.20;;;;;;4973702;28;20035;-67
2022/03/13 10:42:50;;;;;;;37.35;29.17;;;819.60;435.20;;;;;;4973891;28;20026;-67
2022/03/13 10:45:39;;;;;;;27.60;24.88;;;845.10;435.20;;;;;;4974088;28;20019;-67
2022/03/13 10:48:21;;;;;;;28.35;22.10;;;;;;;;;;4975062;28;20027;-66
2022/03/13 10:50:52;;;;;;;34.97;25.92;;;845.30;409.60;;;;;;4976817;28;20085;-65
2022/03/13 10:53:18;;;;;;;18.13;16.30;;;;;;;;;;4977125;28;20070;-65
2022/03/13 10:56:08;;;;;;;19.35;16.98;;;844.90;409.60;;;;;;4969705;28;20430;-65
2022/03/13 10:58:37;;;;;;;19.63;17.13;;;;;;;;;;4971120;28;20047;-67
2022/03/13 11:01:11;;;;;;;20.63;17.15;;;;;;;;;;4974516;28;20395;-67
2022/03/13 11:03:47;;;;;;;24.30;18.58;;;794.10;409.60;;;;;;4976725;28;20155;-67
2022/03/13 11:06:13;;;;;;;111.57;71.30;;;;;;;;;;4976508;28;20027;-66
2022/03/13 11:08:40;;;;;;;33.92;25.42;;;;;;;;;;4976495;28;20030;-67
2022/03/13 11:11:06;;;;;;;35.75;24.45;;;;;;;;;;4976604;28;20500;-65
2022/03/13 11:13:34;;;;;;;56.65;35.03;;;;;;;;;;4976613;28;20054;-67
2022/03/13 11:16:02;;;;;;;52.25;31.95;;;794.30;409.60;;;;;;4976353;28;20023;-65
2022/03/13 11:18:35;;;;;;;26.33;18.70;;;;;;;;;;4976468;28;20030;-66
2022/03/13 11:21:04;;;;;;;27.70;17.70;;;;;;;;;;4976548;28;20015;-66
2022/03/13 11:23:31;;;;;;;23.58;17.60;;;;;;;;;;4976467;28;20074;-66
2022/03/13 11:25:58;;;;;;;26.13;16.20;;;;;;;;;;4976205;28;20086;-66
2022/03/13 11:28:28;;;;;;;22.77;18.55;;;;;;;;;;4976151;28;20027;-66
2022/03/13 11:30:56;;;;;;;21.58;16.27;;;;;;;;;;4976185;28;20512;-66
2022/03/13 11:33:31;;;;;;;22.65;15.52;;;;;;;;;;4976227;28;20686;-66
2022/03/13 11:36:16;;;;;;;27.70;17.38;;;;;;;;;;4975968;28;20030;-66
2022/03/13 11:38:56;;;;;;;18.80;15.45;;;;;;;;;;4976372;28;20142;-65
2022/03/13 11:41:37;;;;;;;31.63;16.58;;;;;;;;;;4976534;28;20030;-67
2022/03/13 11:44:04;;;;;;;18.95;12.95;;;;;;;;;;4976244;28;20026;-66
2022/03/13 11:46:38;;;;;;;21.60;15.65;;;;;;;;;;4976013;28;20054;-65
2022/03/13 11:49:17;;;;;;;32.95;18.27;;;;;;;;;;4975748;28;20023;-64
2022/03/13 11:51:45;;;;;;;16.90;13.43;;;;;;;;;;4975728;28;20031;-64
2022/03/13 11:54:15;;;;;;;17.30;13.10;;;614.90;512.00;;;;;;4975986;28;20435;-66
2022/03/13 11:56:47;;;;;;;14.65;11.63;;;;;;;;;;4975857;28;20023;-65
2022/03/13 11:59:15;;;;;;;16.42;11.15;;;;;;;;;;4975929;28;20049;-64
2022/03/13 12:01:42;;;;;;;16.83;12.65;;;;;;;;;;4976504;28;20073;-65
2022/03/13 12:04:09;;;;;;;20.45;16.08;;;;;;;;;;4976261;28;20105;-65
2022/03/13 12:06:43;;;;;;;21.33;15.13;;;;;;;;;;4976139;28;20019;-65
2022/03/13 12:09:09;;;;;;;23.15;15.77;;;;;;;;;;4976451;28;20058;-65
2022/03/13 12:11:38;;;;;;;15.27;12.20;;;;;;;;;;4958614;28;20078;-65
2022/03/13 12:14:08;;;;;;;30.38;19.65;;;;;;;;;;4976132;28;20082;-66
2022/03/13 12:16:35;;;;;;;16.85;13.25;;;;;;;;;;4976000;28;20102;-65
2022/03/13 12:19:02;;;;;;;31.10;17.08;;;;;;;;;;4975858;28;20382;-65
2022/03/13 12:21:28;;;;;;;24.27;12.88;;;;;;;;;;4976047;28;20370;-66
2022/03/13 12:23:56;;;;;;;22.42;13.18;;;;;;;;;;4957654;28;20034;-65
2022/03/13 12:26:34;;;;;;;17.00;13.20;;;;;;;;;;4956496;29;20027;-66
2022/03/13 12:29:00;;;;;;;18.52;12.35;;;;;;;;;;4956283;29;20103;-66
2022/03/13 12:31:26;;;;;;;30.63;13.70;;;;;;;;;;4956354;29;20031;-65
2022/03/13 12:33:54;;;;;;;16.77;12.73;;;512.70;588.80;;;;;;4939140;29;20031;-65
2022/03/13 12:36:23;;;;;;;19.02;13.40;;;512.50;640.00;;;;;;4956254;29;20031;-66
2022/03/13 12:38:53;;;;;;;19.05;13.55;;;512.70;614.40;;;;;;4956400;29;20043;-64
2022/03/13 12:41:23;;;;;;;15.57;11.98;;;;;;;;;;4956485;29;20123;-64
2022/03/13 12:43:58;;;;;;;17.75;14.10;;;537.90;588.80;;;;;;4956983;29;20099;-64
2022/03/13 12:46:28;;;;;;;18.60;13.68;;;;;;;;;;4939012;29;20031;-64
2022/03/13 12:48:58;;;;;;;24.45;12.27;;;;;;;;;;4956294;29;20039;-65
2022/03/13 12:51:34;;;;;;;15.10;11.60;;;537.70;588.80;;;;;;4956161;29;20027;-65
2022/03/13 12:54:02;;;;;;;23.30;13.02;;;512.80;588.80;;;;;;4956128;29;20030;-64
2022/03/13 12:56:29;;;;;;;31.58;13.02;;;512.70;588.80;;;;;;4955890;29;20024;-65
2022/03/13 12:58:56;;;;;;;55.20;35.25;;;512.70;640.00;;;;;;4955705;28;20055;-64
2022/03/13 13:01:21;;;;;;;68.65;43.17;;;512.60;614.40;;;;;;4956165;29;20077;-64
2022/03/13 13:03:52;;;;;;;22.63;16.05;;;512.80;614.40;;;;;;4955775;29;20371;-65
2022/03/13 13:06:31;;;;;;;21.52;15.15;;;;;;;;;;4955840;29;20379;-64
2022/03/13 13:08:58;;;;;;;32.13;23.52;;;537.60;640.00;;;;;;4956075;29;20378;-64
2022/03/13 13:11:37;;;;;;;21.25;13.77;;;512.90;614.40;;;;;;4955013;28;20031;-65
2022/03/13 13:14:03;;;;;;;13.95;10.75;;;;;;;;;;4955778;29;20027;-64
2022/03/13 13:16:30;;;;;;;55.28;36.10;;;;;;;;;;4955667;29;20086;-64
2022/03/13 13:19:02;;;;;;;15.95;12.65;;;;;;;;;;4938208;29;20086;-65
2022/03/13 13:21:42;;;;;;;14.88;11.48;;;;;;;;;;4955516;29;20023;-64
2022/03/13 13:24:29;;;;;;;29.27;13.90;;;;;;;;;;4955634;29;20024;-65
2022/03/13 13:26:55;;;;;;;16.00;12.40;;;;;;;;;;4955648;29;20055;-66
2022/03/13 13:29:33;;;;;;;14.80;10.43;;;;;;;;;;4955670;29;20027;-65
2022/03/13 13:32:24;;;;;;;57.97;35.70;;;461.60;665.60;;;;;;4955484;29;20027;-66